Terminal Aerodrome Forecast
Issued by NWS

Home | Current Version | Previous Version | Text Only | Print | Product List | Glossary On
Versions: 1 2 3 4 5 6 7 8 9 10 11 12 13 14 15 16
375
FTUS43 KGRB 032320
TAFMTW
TAF
KMTW 032320Z 0400/0424 27015G21KT P6SM VCSH BKN060
     FM040100 30010G18KT 6SM -RA BKN070
      TEMPO 0401/0405 3SM -TSRA BKN040CB
     FM040500 32010KT 6SM -RA BKN035 BKN100
     FM040700 35012KT P6SM SCT025 BKN040
     FM041300 34016G26KT P6SM BKN035=

USA.gov is the U.S. government's official web portal to all federal, state and local government web resources and services.